createdAt,value
2017-11-10T00:00:19.957Z,1013.15
2017-11-10T00:00:46.105Z,1013.15
2017-11-10T00:01:12.257Z,1013.12
2017-11-10T00:01:38.429Z,1013.12
2017-11-10T00:02:04.566Z,1013.13
2017-11-10T00:02:30.680Z,1013.08
2017-11-10T00:02:56.804Z,1013.12
2017-11-10T00:03:22.928Z,1013.04
2017-11-10T00:03:49.050Z,1013.06
2017-11-10T00:04:15.195Z,1012.98
2017-11-10T00:04:41.322Z,1013.05
2017-11-10T00:05:07.452Z,1013.03
2017-11-10T00:05:33.585Z,1013.05
2017-11-10T00:05:59.705Z,1013.08
2017-11-10T00:06:25.820Z,1013.06
2017-11-10T00:06:51.953Z,1013.15
2017-11-10T00:07:18.093Z,1013.09
2017-11-10T00:07:44.210Z,1013.07
2017-11-10T00:08:10.361Z,1013.03
2017-11-10T00:08:36.474Z,1013.03
2017-11-10T00:09:02.640Z,1013.09
2017-11-10T00:09:28.752Z,1013.06
2017-11-10T00:09:54.925Z,1013.04
2017-11-10T00:10:21.028Z,1013.03
2017-11-10T00:10:47.196Z,1013.04
2017-11-10T00:11:13.322Z,1013.1
2017-11-10T00:11:39.440Z,1013.08
2017-11-10T00:12:05.568Z,1013.06
2017-11-10T00:12:31.684Z,1013.09
2017-11-10T00:12:57.801Z,1013.07
2017-11-10T00:13:23.920Z,1013.03
2017-11-10T00:13:50.086Z,1013.04
2017-11-10T00:14:16.205Z,1013.04
2017-11-10T00:14:42.319Z,1013.05
2017-11-10T00:15:08.444Z,1013.07
2017-11-10T00:15:34.600Z,1013.04
2017-11-10T00:16:00.715Z,1013.06
2017-11-10T00:16:26.843Z,1013
2017-11-10T00:16:52.987Z,1013.1
2017-11-10T00:17:19.105Z,1013.01
2017-11-10T00:17:45.255Z,1013.06
2017-11-10T00:18:11.378Z,1013.05
2017-11-10T00:18:37.488Z,1013.03
2017-11-10T00:19:03.625Z,1013.05
2017-11-10T00:19:29.738Z,1013.03
2017-11-10T00:19:55.893Z,1013.07
2017-11-10T00:20:22.035Z,1013.04
2017-11-10T00:20:48.171Z,1013.09
2017-11-10T00:21:14.297Z,1013.05
2017-11-10T00:21:40.423Z,1013.01
2017-11-10T00:22:06.564Z,1013.04
2017-11-10T00:22:32.700Z,1013.03
2017-11-10T00:22:58.843Z,1013
2017-11-10T00:23:24.952Z,1013
2017-11-10T00:23:51.091Z,1013.02
2017-11-10T00:24:17.206Z,1013.02
2017-11-10T00:24:43.363Z,1013.01
2017-11-10T00:25:09.520Z,1013.01
2017-11-10T00:25:35.638Z,1013.04
2017-11-10T00:26:01.765Z,1013.04
2017-11-10T00:26:27.871Z,1013.04
2017-11-10T00:26:54.035Z,1013.03
2017-11-10T00:27:20.157Z,1012.99
2017-11-10T00:27:46.300Z,1013.01
2017-11-10T00:28:12.438Z,1013.03
2017-11-10T00:28:38.554Z,1013
2017-11-10T00:29:04.705Z,1013.02
2017-11-10T00:29:30.866Z,1013.07
2017-11-10T00:29:56.981Z,1013.1
2017-11-10T00:30:23.107Z,1013.03
2017-11-10T00:30:49.230Z,1013.03
2017-11-10T00:31:15.355Z,1013.04
2017-11-10T00:31:41.486Z,1013.04
2017-11-10T00:32:07.625Z,1013.03
2017-11-10T00:32:33.771Z,1013.02
2017-11-10T00:32:59.879Z,1013.04
2017-11-10T00:33:26.004Z,1013.05
2017-11-10T00:33:52.161Z,1013.07
2017-11-10T00:34:18.299Z,1013.03
2017-11-10T00:34:44.415Z,1013.04
2017-11-10T00:35:10.547Z,1013.06
2017-11-10T00:35:36.680Z,1013.01
2017-11-10T00:36:02.823Z,1012.95
2017-11-10T00:36:28.950Z,1013.03
2017-11-10T00:36:55.069Z,1012.96
2017-11-10T00:37:21.693Z,1012.96
2017-11-10T00:37:47.841Z,1012.92
2017-11-10T00:38:14.002Z,1012.95
2017-11-10T00:38:40.166Z,1013
2017-11-10T00:39:06.281Z,1013.02
2017-11-10T00:39:32.458Z,1012.96
2017-11-10T00:39:58.576Z,1013.03
2017-11-10T00:40:24.701Z,1013
2017-11-10T00:40:50.816Z,1013.02
2017-11-10T00:41:16.957Z,1013.02
2017-11-10T00:41:43.092Z,1012.99
2017-11-10T00:42:09.229Z,1012.97
2017-11-10T00:42:35.345Z,1012.96
2017-11-10T00:43:01.541Z,1012.96
2017-11-10T00:43:27.683Z,1012.94
2017-11-10T00:43:53.824Z,1012.94
2017-11-10T00:44:19.981Z,1012.91
2017-11-10T00:44:46.112Z,1012.92
2017-11-10T00:45:12.295Z,1012.89
2017-11-10T00:45:38.395Z,1012.86
2017-11-10T00:46:04.541Z,1012.91
2017-11-10T00:46:30.654Z,1012.9
2017-11-10T00:46:56.787Z,1012.88
2017-11-10T00:47:22.930Z,1012.92
2017-11-10T00:47:49.048Z,1012.98
2017-11-10T00:48:15.174Z,1012.89
2017-11-10T00:48:41.309Z,1012.94
2017-11-10T00:49:07.467Z,1012.91
2017-11-10T00:49:33.600Z,1012.88
2017-11-10T00:49:59.740Z,1012.84
2017-11-10T00:50:25.865Z,1012.85
2017-11-10T00:50:52.017Z,1012.8
2017-11-10T00:51:18.139Z,1012.86
2017-11-10T00:51:44.264Z,1012.85
2017-11-10T00:52:10.390Z,1012.8
2017-11-10T00:52:36.532Z,1012.75
2017-11-10T00:53:02.708Z,1012.79
2017-11-10T00:53:28.826Z,1012.7
2017-11-10T00:53:54.945Z,1012.75
2017-11-10T00:54:21.076Z,1012.69
2017-11-10T00:54:47.213Z,1012.59
2017-11-10T00:55:13.350Z,1012.61
2017-11-10T00:55:39.479Z,1012.57
2017-11-10T00:56:05.601Z,1012.63
2017-11-10T00:56:31.762Z,1012.62
2017-11-10T00:56:57.890Z,1012.64
2017-11-10T00:57:24.036Z,1012.64
2017-11-10T00:57:50.160Z,1012.64
2017-11-10T00:58:16.285Z,1012.66
2017-11-10T00:58:42.398Z,1012.68
2017-11-10T00:59:08.524Z,1012.78
2017-11-10T00:59:34.648Z,1012.73
2017-11-10T01:00:00.765Z,1012.67
2017-11-10T01:00:26.895Z,1012.64
2017-11-10T01:00:53.024Z,1012.58
2017-11-10T01:01:19.141Z,1012.68
2017-11-10T01:01:45.264Z,1012.71
2017-11-10T01:02:11.398Z,1012.62
2017-11-10T01:02:37.516Z,1012.63
2017-11-10T01:03:03.668Z,1012.64
2017-11-10T01:03:29.791Z,1012.66
2017-11-10T01:03:55.905Z,1012.63
2017-11-10T01:04:22.031Z,1012.7
2017-11-10T01:04:48.146Z,1012.66
2017-11-10T01:05:14.267Z,1012.69
2017-11-10T01:05:40.399Z,1012.72
2017-11-10T01:06:06.517Z,1012.71
2017-11-10T01:06:32.634Z,1012.67
2017-11-10T01:06:58.753Z,1012.65
2017-11-10T01:07:24.879Z,1012.68
2017-11-10T01:07:50.996Z,1012.61
2017-11-10T01:08:17.125Z,1012.57
2017-11-10T01:08:43.237Z,1012.56
2017-11-10T01:09:09.394Z,1012.55
2017-11-10T01:09:35.513Z,1012.53
2017-11-10T01:10:01.632Z,1012.52
2017-11-10T01:10:27.748Z,1012.52
2017-11-10T01:10:53.865Z,1012.52
2017-11-10T01:11:19.997Z,1012.53
2017-11-10T01:11:46.106Z,1012.52
2017-11-10T01:12:12.228Z,1012.55
2017-11-10T01:12:38.354Z,1012.55
2017-11-10T01:13:04.476Z,1012.57
2017-11-10T01:13:30.591Z,1012.59
2017-11-10T01:13:56.712Z,1012.56
2017-11-10T01:14:22.838Z,1012.61
2017-11-10T01:14:48.972Z,1012.53
2017-11-10T01:15:15.093Z,1012.48
2017-11-10T01:15:41.220Z,1012.52
2017-11-10T01:16:07.332Z,1012.51
2017-11-10T01:16:33.456Z,1012.47
2017-11-10T01:16:59.577Z,1012.5
2017-11-10T01:17:25.695Z,1012.54
2017-11-10T01:17:51.820Z,1012.54
2017-11-10T01:18:17.937Z,1012.53
2017-11-10T01:18:44.061Z,1012.53
2017-11-10T01:19:10.216Z,1012.49
2017-11-10T01:19:36.331Z,1012.49
2017-11-10T01:20:02.447Z,1012.46
2017-11-10T01:20:28.566Z,1012.47
2017-11-10T01:20:54.696Z,1012.36
2017-11-10T01:21:20.810Z,1012.47
2017-11-10T01:21:46.991Z,1012.46
2017-11-10T01:22:13.104Z,1012.55
2017-11-10T01:22:39.232Z,1012.45
2017-11-10T01:23:05.361Z,1012.47
2017-11-10T01:23:31.475Z,1012.46
2017-11-10T01:23:57.598Z,1012.41
2017-11-10T01:24:23.720Z,1012.46
2017-11-10T01:24:49.829Z,1012.39
2017-11-10T01:25:15.950Z,1012.36
2017-11-10T01:25:42.074Z,1012.32
2017-11-10T01:26:08.187Z,1012.36
2017-11-10T01:26:34.312Z,1012.27
2017-11-10T01:27:00.435Z,1012.2
2017-11-10T01:27:26.554Z,1012.19
2017-11-10T01:27:52.679Z,1012.21
2017-11-10T01:28:18.834Z,1012.19
2017-11-10T01:28:44.941Z,1012.2
2017-11-10T01:29:11.058Z,1012.3
2017-11-10T01:29:37.183Z,1012.25
2017-11-10T01:30:03.299Z,1012.27
2017-11-10T01:30:29.438Z,1012.24
2017-11-10T01:30:55.561Z,1012.23
2017-11-10T01:31:21.679Z,1012.24
2017-11-10T01:31:47.809Z,1012.31
2017-11-10T01:32:13.930Z,1012.19
2017-11-10T01:32:40.048Z,1012.23
2017-11-10T01:33:06.172Z,1012.18
2017-11-10T01:33:32.290Z,1012.22
2017-11-10T01:33:58.409Z,1012.22
2017-11-10T01:34:24.531Z,1012.21
2017-11-10T01:34:50.657Z,1012.1
2017-11-10T01:35:16.774Z,1012.1
2017-11-10T01:35:42.899Z,1012.17
2017-11-10T01:36:09.014Z,1012.13
2017-11-10T01:36:35.133Z,1012.16
2017-11-10T01:37:01.284Z,1012.16
2017-11-10T01:37:27.406Z,1012.16
2017-11-10T01:37:53.528Z,1012.16
2017-11-10T01:38:19.649Z,1012.21
2017-11-10T01:38:45.768Z,1012.22
2017-11-10T01:39:11.879Z,1012.22
2017-11-10T01:39:38.006Z,1012.21
2017-11-10T01:40:04.121Z,1012.19
2017-11-10T01:40:30.241Z,1012.21
2017-11-10T01:40:56.369Z,1012.17
2017-11-10T01:41:22.483Z,1012.14
2017-11-10T01:41:48.611Z,1012.09
2017-11-10T01:42:14.727Z,1012.11
2017-11-10T01:42:40.850Z,1012.09
2017-11-10T01:43:06.973Z,1012.11
2017-11-10T01:43:33.099Z,1012.05
2017-11-10T01:43:59.221Z,1012.18
2017-11-10T01:44:25.346Z,1012.19
2017-11-10T01:44:51.463Z,1012.2
2017-11-10T01:45:17.601Z,1012.13
2017-11-10T01:45:43.720Z,1012.12
2017-11-10T01:46:09.842Z,1012.12
2017-11-10T01:46:35.959Z,1012.1
2017-11-10T01:47:02.080Z,1012.14
2017-11-10T01:47:28.204Z,1012.06
2017-11-10T01:47:54.341Z,1012.07
2017-11-10T01:48:20.449Z,1012.18
2017-11-10T01:48:46.570Z,1012.09
2017-11-10T01:49:12.695Z,1012.1
2017-11-10T01:49:38.801Z,1012.13
2017-11-10T01:50:04.924Z,1012.17
2017-11-10T01:50:31.046Z,1012.14
2017-11-10T01:50:57.176Z,1012.16
2017-11-10T01:51:23.293Z,1012.11
2017-11-10T01:51:49.431Z,1012.15
2017-11-10T01:52:15.560Z,1012.09
2017-11-10T01:52:41.676Z,1012.15
2017-11-10T01:53:07.802Z,1012.13
2017-11-10T01:53:33.923Z,1012.22
2017-11-10T01:54:00.049Z,1012.18
2017-11-10T01:54:26.167Z,1012.16
2017-11-10T01:54:52.290Z,1012.12
2017-11-10T01:55:18.405Z,1012.06
2017-11-10T01:55:44.523Z,1012.1
2017-11-10T01:56:10.652Z,1012.11
2017-11-10T01:56:36.774Z,1012.02
2017-11-10T01:57:02.899Z,1012.12
2017-11-10T01:57:29.018Z,1011.96
2017-11-10T01:57:55.131Z,1011.95
2017-11-10T01:58:21.251Z,1011.91
2017-11-10T01:58:47.375Z,1011.97
2017-11-10T01:59:13.492Z,1011.92
2017-11-10T01:59:39.616Z,1011.9
2017-11-10T02:00:05.733Z,1011.85
2017-11-10T02:00:31.883Z,1011.9
2017-11-10T02:00:58.007Z,1011.76
2017-11-10T02:01:24.121Z,1011.84
2017-11-10T02:01:50.242Z,1011.73
2017-11-10T02:02:16.360Z,1011.72
2017-11-10T02:02:42.498Z,1011.72
2017-11-10T02:03:08.624Z,1011.66
2017-11-10T02:03:34.740Z,1011.76
2017-11-10T02:04:00.868Z,1011.65
2017-11-10T02:04:27.007Z,1011.62
2017-11-10T02:04:53.146Z,1011.57
2017-11-10T02:05:19.290Z,1011.58
2017-11-10T02:05:45.407Z,1011.57
2017-11-10T02:06:11.533Z,1011.58
2017-11-10T02:06:37.650Z,1011.54
2017-11-10T02:07:03.771Z,1011.57
2017-11-10T02:07:29.897Z,1011.5
2017-11-10T02:07:56.021Z,1011.57
2017-11-10T02:08:22.131Z,1011.42
2017-11-10T02:08:48.258Z,1011.38
2017-11-10T02:09:14.378Z,1011.42
2017-11-10T02:09:40.496Z,1011.43
2017-11-10T02:10:06.622Z,1011.31
2017-11-10T02:10:32.739Z,1011.47
2017-11-10T02:10:58.868Z,1011.3
2017-11-10T02:11:24.990Z,1011.41
2017-11-10T02:11:51.105Z,1011.34
2017-11-10T02:12:17.249Z,1011.42
2017-11-10T02:12:43.372Z,1011.43
2017-11-10T02:13:09.496Z,1011.45
2017-11-10T02:13:35.618Z,1011.42
2017-11-10T02:14:01.740Z,1011.38
2017-11-10T02:14:27.863Z,1011.41
2017-11-10T02:14:53.995Z,1011.44
2017-11-10T02:15:20.123Z,1011.36
2017-11-10T02:15:46.245Z,1011.4
2017-11-10T02:16:12.386Z,1011.44
2017-11-10T02:16:38.517Z,1011.39
2017-11-10T02:17:04.636Z,1011.45
2017-11-10T02:17:30.758Z,1011.49
2017-11-10T02:17:56.892Z,1011.41
2017-11-10T02:18:23.016Z,1011.48
2017-11-10T02:18:49.133Z,1011.44
2017-11-10T02:19:15.256Z,1011.46
2017-11-10T02:19:41.376Z,1011.43
2017-11-10T02:20:07.494Z,1011.46
2017-11-10T02:20:33.621Z,1011.52
2017-11-10T02:20:59.734Z,1011.55
2017-11-10T02:21:25.861Z,1011.5
2017-11-10T02:21:51.982Z,1011.52
2017-11-10T02:22:18.100Z,1011.55
2017-11-10T02:22:44.228Z,1011.56
2017-11-10T02:23:10.346Z,1011.54
2017-11-10T02:23:36.460Z,1011.54
2017-11-10T02:24:02.585Z,1011.59
2017-11-10T02:24:28.709Z,1011.61
2017-11-10T02:24:54.825Z,1011.58
2017-11-10T02:25:20.965Z,1011.61
2017-11-10T02:25:47.088Z,1011.65
2017-11-10T02:26:13.208Z,1011.64
2017-11-10T02:26:39.333Z,1011.6
2017-11-10T02:27:05.454Z,1011.67
2017-11-10T02:27:31.571Z,1011.63
2017-11-10T02:27:57.694Z,1011.72
2017-11-10T02:28:23.815Z,1011.65
2017-11-10T02:28:49.932Z,1011.57
2017-11-10T02:29:16.055Z,1011.56
2017-11-10T02:29:42.180Z,1011.55
2017-11-10T02:30:08.295Z,1011.57
2017-11-10T02:30:34.414Z,1011.57
2017-11-10T02:31:00.541Z,1011.5
2017-11-10T02:31:26.658Z,1011.5
2017-11-10T02:31:52.782Z,1011.54
2017-11-10T02:32:18.899Z,1011.5
2017-11-10T02:32:45.025Z,1011.54
2017-11-10T02:33:11.141Z,1011.5
2017-11-10T02:33:37.262Z,1011.5
2017-11-10T02:34:03.389Z,1011.47
2017-11-10T02:34:29.521Z,1011.48
2017-11-10T02:34:55.655Z,1011.42
2017-11-10T02:35:21.772Z,1011.45
2017-11-10T02:35:47.894Z,1011.5
2017-11-10T02:36:14.012Z,1011.41
2017-11-10T02:36:40.135Z,1011.43
2017-11-10T02:37:06.256Z,1011.39
2017-11-10T02:37:32.384Z,1011.48
2017-11-10T02:37:58.493Z,1011.5
2017-11-10T02:38:24.619Z,1011.43
2017-11-10T02:38:50.739Z,1011.46
2017-11-10T02:39:16.861Z,1011.5
2017-11-10T02:39:42.982Z,1011.49
2017-11-10T02:40:09.105Z,1011.5
2017-11-10T02:40:35.215Z,1011.52
2017-11-10T02:41:01.342Z,1011.45
2017-11-10T02:41:27.459Z,1011.42
2017-11-10T02:41:53.587Z,1011.45
2017-11-10T02:42:19.715Z,1011.44
2017-11-10T02:42:45.836Z,1011.45
2017-11-10T02:43:11.979Z,1011.44
2017-11-10T02:43:38.097Z,1011.38
2017-11-10T02:44:04.226Z,1011.39
2017-11-10T02:44:30.355Z,1011.44
2017-11-10T02:44:56.487Z,1011.37
2017-11-10T02:45:22.626Z,1011.34
2017-11-10T02:45:48.743Z,1011.29
2017-11-10T02:46:14.870Z,1011.25
2017-11-10T02:46:40.990Z,1011.32
2017-11-10T02:47:07.114Z,1011.28
2017-11-10T02:47:33.227Z,1011.31
2017-11-10T02:47:59.367Z,1011.27
2017-11-10T02:48:25.470Z,1011.22
2017-11-10T02:48:51.586Z,1011.21
2017-11-10T02:49:17.709Z,1011.25
2017-11-10T02:49:43.823Z,1011.29
2017-11-10T02:50:09.950Z,1011.18
2017-11-10T02:50:36.073Z,1011.17
2017-11-10T02:51:02.193Z,1011.15
2017-11-10T02:51:28.334Z,1011.08
2017-11-10T02:51:54.451Z,1011.17
2017-11-10T02:52:20.579Z,1011.22
2017-11-10T02:52:46.695Z,1011.17
2017-11-10T02:53:12.821Z,1011.21
2017-11-10T02:53:38.940Z,1011.13
2017-11-10T02:54:05.056Z,1011.15
2017-11-10T02:54:31.184Z,1011.18
2017-11-10T02:54:57.304Z,1011.14
2017-11-10T02:55:23.420Z,1011.17
2017-11-10T02:55:49.544Z,1011.15
2017-11-10T02:56:15.694Z,1011.16
2017-11-10T02:56:41.810Z,1011.13
2017-11-10T02:57:07.931Z,1011.05
2017-11-10T02:57:34.046Z,1011.08
2017-11-10T02:58:00.165Z,1011
2017-11-10T02:58:26.288Z,1011.04
2017-11-10T02:58:52.411Z,1011.04
2017-11-10T02:59:18.529Z,1011
2017-11-10T02:59:44.646Z,1011.02
2017-11-10T03:00:10.766Z,1011.17
2017-11-10T03:00:36.905Z,1011.02
2017-11-10T03:01:03.024Z,1011.03
2017-11-10T03:01:29.177Z,1011.06
2017-11-10T03:01:55.301Z,1011.11
2017-11-10T03:02:21.417Z,1011.11
2017-11-10T03:02:47.537Z,1011.13
2017-11-10T03:03:13.653Z,1011.1
2017-11-10T03:03:39.772Z,1011.1
2017-11-10T03:04:05.900Z,1011.11
2017-11-10T03:04:32.022Z,1011.1
2017-11-10T03:04:58.144Z,1011.04
2017-11-10T03:05:24.266Z,1011.05
2017-11-10T03:05:50.383Z,1011.02
2017-11-10T03:06:16.508Z,1010.99
2017-11-10T03:06:42.623Z,1010.92
2017-11-10T03:07:08.747Z,1010.92
2017-11-10T03:07:34.887Z,1010.92
2017-11-10T03:08:01.011Z,1010.95
2017-11-10T03:08:27.136Z,1010.95
2017-11-10T03:08:53.290Z,1010.92
2017-11-10T03:09:19.377Z,1010.88
2017-11-10T03:09:45.503Z,1010.89
2017-11-10T03:10:11.619Z,1010.87
2017-11-10T03:10:37.743Z,1010.87
2017-11-10T03:11:03.859Z,1010.83
2017-11-10T03:11:29.978Z,1010.78
2017-11-10T03:11:56.103Z,1010.69
2017-11-10T03:12:22.230Z,1010.75
2017-11-10T03:12:48.347Z,1010.8
2017-11-10T03:13:14.471Z,1010.7
2017-11-10T03:13:40.585Z,1010.72
2017-11-10T03:14:06.706Z,1010.75
2017-11-10T03:14:32.850Z,1010.76
2017-11-10T03:14:58.967Z,1010.73
2017-11-10T03:15:25.090Z,1010.8
2017-11-10T03:15:51.212Z,1010.81
2017-11-10T03:16:17.357Z,1010.73
2017-11-10T03:16:43.471Z,1010.67
2017-11-10T03:17:09.597Z,1010.61
2017-11-10T03:17:35.720Z,1010.63
2017-11-10T03:18:01.838Z,1010.62
2017-11-10T03:18:27.965Z,1010.63
2017-11-10T03:18:54.099Z,1010.59
2017-11-10T03:19:20.225Z,1010.57
2017-11-10T03:19:46.338Z,1010.55
2017-11-10T03:20:12.466Z,1010.53
2017-11-10T03:20:38.579Z,1010.53
2017-11-10T03:21:04.710Z,1010.55
2017-11-10T03:21:30.831Z,1010.51
2017-11-10T03:21:56.943Z,1010.49
2017-11-10T03:22:23.089Z,1010.5
2017-11-10T03:22:49.213Z,1010.56
2017-11-10T03:23:15.328Z,1010.54
2017-11-10T03:23:41.452Z,1010.46
2017-11-10T03:24:07.576Z,1010.55
2017-11-10T03:24:33.693Z,1010.44
2017-11-10T03:24:59.822Z,1010.52
2017-11-10T03:25:25.937Z,1010.46
2017-11-10T03:25:52.057Z,1010.42
2017-11-10T03:26:18.183Z,1010.37
2017-11-10T03:26:44.293Z,1010.49
2017-11-10T03:27:10.409Z,1010.41
2017-11-10T03:27:36.535Z,1010.43
2017-11-10T03:28:02.660Z,1010.45
2017-11-10T03:28:28.806Z,1010.42
2017-11-10T03:28:54.923Z,1010.41
2017-11-10T03:29:21.048Z,1010.46
2017-11-10T03:29:47.168Z,1010.41
2017-11-10T03:30:13.295Z,1010.45
2017-11-10T03:30:39.429Z,1010.42
2017-11-10T03:31:05.579Z,1010.48
2017-11-10T03:31:31.693Z,1010.39
2017-11-10T03:31:57.817Z,1010.44
2017-11-10T03:32:23.948Z,1010.41
2017-11-10T03:32:50.057Z,1010.52
2017-11-10T03:33:16.177Z,1010.38
2017-11-10T03:33:42.304Z,1010.41
2017-11-10T03:34:08.447Z,1010.43
2017-11-10T03:34:34.565Z,1010.43
2017-11-10T03:35:00.687Z,1010.39
2017-11-10T03:35:26.806Z,1010.47
2017-11-10T03:35:52.928Z,1010.36
2017-11-10T03:36:19.042Z,1010.43
2017-11-10T03:36:45.162Z,1010.49
2017-11-10T03:37:11.286Z,1010.41
2017-11-10T03:37:37.401Z,1010.43
2017-11-10T03:38:03.526Z,1010.44
2017-11-10T03:38:29.675Z,1010.43
2017-11-10T03:38:55.803Z,1010.34
2017-11-10T03:39:21.930Z,1010.39
2017-11-10T03:39:48.043Z,1010.4
2017-11-10T03:40:14.185Z,1010.46
2017-11-10T03:40:40.294Z,1010.42
2017-11-10T03:41:06.411Z,1010.37
2017-11-10T03:41:32.561Z,1010.39
2017-11-10T03:41:58.692Z,1010.35
2017-11-10T03:42:24.805Z,1010.38
2017-11-10T03:42:50.924Z,1010.34
2017-11-10T03:43:17.064Z,1010.37
2017-11-10T03:43:43.169Z,1010.34
2017-11-10T03:44:09.294Z,1010.35
2017-11-10T03:44:35.411Z,1010.38
2017-11-10T03:45:01.533Z,1010.33
2017-11-10T03:45:27.658Z,1010.36
2017-11-10T03:45:53.786Z,1010.34
2017-11-10T03:46:19.898Z,1010.31
2017-11-10T03:46:46.023Z,1010.37
2017-11-10T03:47:12.137Z,1010.3
2017-11-10T03:47:38.267Z,1010.31
2017-11-10T03:48:04.380Z,1010.35
2017-11-10T03:48:30.509Z,1010.23
2017-11-10T03:48:56.630Z,1010.23
2017-11-10T03:49:22.746Z,1010.29
2017-11-10T03:49:48.868Z,1010.28
2017-11-10T03:50:14.981Z,1010.24
2017-11-10T03:50:41.101Z,1010.25
2017-11-10T03:51:07.222Z,1010.22
2017-11-10T03:51:33.338Z,1010.26
2017-11-10T03:51:59.463Z,1010.22
2017-11-10T03:52:25.585Z,1010.22
2017-11-10T03:52:51.704Z,1010.18
2017-11-10T03:53:17.829Z,1010.21
2017-11-10T03:53:43.943Z,1010.2
2017-11-10T03:54:10.068Z,1010.16
2017-11-10T03:54:36.184Z,1010.16
2017-11-10T03:55:02.304Z,1010.17
2017-11-10T03:55:28.426Z,1010.15
2017-11-10T03:55:54.544Z,1010.18
2017-11-10T03:56:20.670Z,1010.12
2017-11-10T03:56:46.806Z,1010.16
2017-11-10T03:57:12.938Z,1010.09
2017-11-10T03:57:39.054Z,1010.12
2017-11-10T03:58:05.172Z,1010.1
2017-11-10T03:58:31.298Z,1010.1
2017-11-10T03:58:57.417Z,1010.12
2017-11-10T03:59:23.545Z,1010.19
2017-11-10T03:59:49.682Z,1010.1
2017-11-10T04:00:15.806Z,1010.1
2017-11-10T04:00:41.944Z,1010.11
2017-11-10T04:01:08.062Z,1010.13
2017-11-10T04:01:34.185Z,1010.07
2017-11-10T04:02:00.301Z,1010.09
2017-11-10T04:02:26.419Z,1010.08
2017-11-10T04:02:52.544Z,1010.1
2017-11-10T04:03:18.661Z,1010.06
2017-11-10T04:03:44.778Z,1010.09
2017-11-10T04:04:10.898Z,1010.02
2017-11-10T04:04:37.017Z,1010.03
2017-11-10T04:05:03.152Z,1010.08
2017-11-10T04:05:29.272Z,1010.05
2017-11-10T04:05:55.390Z,1010.07
2017-11-10T04:06:21.516Z,1010.08
2017-11-10T04:06:47.659Z,1010.06
2017-11-10T04:07:13.777Z,1010.06
2017-11-10T04:07:39.905Z,1010.02
2017-11-10T04:08:06.027Z,1010.05
2017-11-10T04:08:32.141Z,1010.03
2017-11-10T04:08:58.294Z,1010.19
2017-11-10T04:09:24.403Z,1010.07
2017-11-10T04:09:50.522Z,1010.03
2017-11-10T04:10:16.641Z,1010.06
2017-11-10T04:10:42.767Z,1010.04
2017-11-10T04:11:08.886Z,1010.1
2017-11-10T04:11:35.013Z,1010.07
2017-11-10T04:12:01.131Z,1010.03
2017-11-10T04:12:27.262Z,1010.11
2017-11-10T04:12:53.381Z,1010.05
2017-11-10T04:13:19.497Z,1009.99
2017-11-10T04:13:45.620Z,1010.01
2017-11-10T04:14:11.759Z,1010.03
2017-11-10T04:14:37.886Z,1010.05
2017-11-10T04:15:04.013Z,1010.05
2017-11-10T04:15:30.130Z,1010.02
2017-11-10T04:15:56.251Z,1010.02
2017-11-10T04:16:22.366Z,1010.04
2017-11-10T04:16:48.488Z,1009.98
2017-11-10T04:17:14.613Z,1009.95
2017-11-10T04:17:40.737Z,1009.97
2017-11-10T04:18:06.854Z,1009.89
2017-11-10T04:18:32.979Z,1009.98
2017-11-10T04:18:59.115Z,1009.93
2017-11-10T04:19:25.234Z,1009.99
2017-11-10T04:19:51.358Z,1009.95
2017-11-10T04:20:17.473Z,1009.92
2017-11-10T04:20:43.599Z,1009.94
2017-11-10T04:21:09.724Z,1010
2017-11-10T04:21:35.845Z,1009.9
2017-11-10T04:22:01.962Z,1009.92
2017-11-10T04:22:28.085Z,1009.87
2017-11-10T04:22:54.232Z,1009.87
2017-11-10T04:23:20.362Z,1009.86
2017-11-10T04:23:46.472Z,1009.88
2017-11-10T04:24:12.587Z,1009.95
2017-11-10T04:24:38.706Z,1009.89
2017-11-10T04:25:04.825Z,1009.85
2017-11-10T04:25:30.948Z,1009.94
2017-11-10T04:25:57.066Z,1009.94
2017-11-10T04:26:23.189Z,1009.99
2017-11-10T04:26:49.314Z,1009.97
2017-11-10T04:27:15.426Z,1009.96
2017-11-10T04:27:41.549Z,1009.98
2017-11-10T04:28:07.666Z,1009.92
2017-11-10T04:28:33.792Z,1009.88
2017-11-10T04:28:59.907Z,1009.96
2017-11-10T04:29:26.032Z,1010.01
2017-11-10T04:29:52.157Z,1009.93
2017-11-10T04:30:18.279Z,1009.9
2017-11-10T04:30:44.401Z,1009.93
2017-11-10T04:31:10.524Z,1009.93
2017-11-10T04:31:36.642Z,1009.9
2017-11-10T04:32:02.765Z,1009.93
2017-11-10T04:32:28.889Z,1009.96
2017-11-10T04:32:55.005Z,1009.91
2017-11-10T04:33:21.148Z,1009.9
2017-11-10T04:33:47.250Z,1009.91
2017-11-10T04:34:13.360Z,1009.92
2017-11-10T04:34:39.489Z,1009.93
2017-11-10T04:35:05.618Z,1009.89
2017-11-10T04:35:31.754Z,1009.92
2017-11-10T04:35:57.865Z,1009.92
2017-11-10T04:36:23.990Z,1009.89
2017-11-10T04:36:50.112Z,1009.92
2017-11-10T04:37:16.226Z,1009.93
2017-11-10T04:37:42.354Z,1009.91
2017-11-10T04:38:08.490Z,1009.85
2017-11-10T04:38:34.609Z,1009.91
2017-11-10T04:39:00.735Z,1009.88
2017-11-10T04:39:26.854Z,1009.87
2017-11-10T04:39:52.979Z,1009.83
2017-11-10T04:40:19.121Z,1009.86
2017-11-10T04:40:45.266Z,1009.86
2017-11-10T04:41:11.384Z,1009.85
2017-11-10T04:41:37.503Z,1009.81
2017-11-10T04:42:03.621Z,1009.8
2017-11-10T04:42:29.744Z,1009.78
2017-11-10T04:42:55.868Z,1009.82
2017-11-10T04:43:21.982Z,1009.83
2017-11-10T04:43:48.108Z,1009.84
2017-11-10T04:44:14.225Z,1009.84
2017-11-10T04:44:40.350Z,1009.82
2017-11-10T04:45:06.468Z,1009.81
2017-11-10T04:45:32.584Z,1009.8
2017-11-10T04:45:58.725Z,1009.84
2017-11-10T04:46:24.843Z,1009.83
2017-11-10T04:46:50.970Z,1009.85
2017-11-10T04:47:17.108Z,1009.82
2017-11-10T04:47:43.233Z,1009.8
2017-11-10T04:48:09.355Z,1009.82
2017-11-10T04:48:35.473Z,1009.76
2017-11-10T04:49:01.593Z,1009.76
2017-11-10T04:49:27.717Z,1009.81
2017-11-10T04:49:53.837Z,1009.79
2017-11-10T04:50:19.953Z,1009.86
2017-11-10T04:50:46.077Z,1009.73
2017-11-10T04:51:12.194Z,1009.74
2017-11-10T04:51:38.319Z,1009.75
2017-11-10T04:52:04.434Z,1009.79
2017-11-10T04:52:30.554Z,1009.76
2017-11-10T04:52:56.677Z,1009.78
2017-11-10T04:53:22.798Z,1009.71
2017-11-10T04:53:48.942Z,1009.69
2017-11-10T04:54:15.082Z,1009.69
2017-11-10T04:54:41.210Z,1009.77
2017-11-10T04:55:07.329Z,1009.78
2017-11-10T04:55:33.453Z,1009.7
2017-11-10T04:55:59.572Z,1009.72
2017-11-10T04:56:25.689Z,1009.74
2017-11-10T04:56:51.815Z,1009.61
2017-11-10T04:57:17.934Z,1009.69
2017-11-10T04:57:44.057Z,1009.68
2017-11-10T04:58:10.200Z,1009.66
2017-11-10T04:58:36.346Z,1009.66
2017-11-10T04:59:02.460Z,1009.68
2017-11-10T04:59:28.583Z,1009.67
2017-11-10T04:59:54.726Z,1009.62
2017-11-10T05:00:20.847Z,1009.64
2017-11-10T05:00:46.967Z,1009.59
2017-11-10T05:01:13.081Z,1009.7
2017-11-10T05:01:39.207Z,1009.53
2017-11-10T05:02:05.325Z,1009.57
2017-11-10T05:02:31.443Z,1009.56
2017-11-10T05:02:57.559Z,1009.57
2017-11-10T05:03:23.689Z,1009.53
2017-11-10T05:03:49.810Z,1009.51
2017-11-10T05:04:15.934Z,1009.53
2017-11-10T05:04:42.052Z,1009.53
2017-11-10T05:05:08.177Z,1009.55
2017-11-10T05:05:34.297Z,1009.6
2017-11-10T05:06:00.443Z,1009.62
2017-11-10T05:06:26.556Z,1009.55
2017-11-10T05:06:52.678Z,1009.54
2017-11-10T05:07:18.798Z,1009.5
2017-11-10T05:07:44.915Z,1009.52
2017-11-10T05:08:11.035Z,1009.53
2017-11-10T05:08:37.161Z,1009.52
2017-11-10T05:09:03.280Z,1009.52
2017-11-10T05:09:29.401Z,1009.64
2017-11-10T05:09:55.566Z,1009.53
2017-11-10T05:10:21.684Z,1009.58
2017-11-10T05:10:47.810Z,1009.57
2017-11-10T05:11:13.923Z,1009.5
2017-11-10T05:11:40.040Z,1009.4
2017-11-10T05:12:06.167Z,1009.5
2017-11-10T05:12:32.292Z,1009.53
2017-11-10T05:12:58.432Z,1009.44
2017-11-10T05:13:24.550Z,1009.42
2017-11-10T05:13:50.677Z,1009.49
2017-11-10T05:14:16.800Z,1009.46
2017-11-10T05:14:42.915Z,1009.47
2017-11-10T05:15:09.032Z,1009.46
2017-11-10T05:15:35.157Z,1009.43
2017-11-10T05:16:01.282Z,1009.47
2017-11-10T05:16:27.399Z,1009.42
2017-11-10T05:16:53.524Z,1009.39
2017-11-10T05:17:19.644Z,1009.43